Aérodrome :
LOGIN :

S'inscrire | Disclaimer

   EN    FR    IT 

 










Légende :    VFR   VFR Marginal   IFR   IFR Intensif   IFR Très Intensif
Visi : 
Plafond : 
>= 8 km
>= 3000ft
5 à 8 km
1000 à 3000 ft
1500m à 5 km
500 à 1000 ft
800 à 1500m
200 à 500 ft
< 800m
< 200 ft
Symboles :   Orages  Brouillard  Fortes neiges  Fortes précipitations  Vent > 20 kt
SIGMETs :   Divers  Orages  Givrage  Turbulence  Onde Orograph.  Cendres Volcan.






- Altitude de l'aérodrome : 20 ft
- Code IATA : TIV


LYTV - Tivat - Montenegro

DERNIER METAR :
  • 260330Z VRB01KT 9999 -RA SCT033 BKN050 10/09 Q1023 RERA

METARs EXPIRÉS :
  • 260300Z 00000KT 8000 RA SCT033 BKN050 10/09 Q1023
  • 260230Z VRB01KT 8000 RA SCT040 OVC073 10/09 Q1023
  • 260200Z VRB01KT 8000 RA SCT040 OVC073 10/09 Q1024
  • 260130Z VRB02KT 8000 RA SCT040 OVC073 10/09 Q1024
  • 260100Z 09003KT 060V210 9999 -RA SCT040 OVC073 09/09 Q1024

TAF TAF LYTV
Valide du 26 à 00h jusqu'au 27 à 00h UTC


252300Z 2600/2624 16005KT 6000 FEW010 SCT030 BKN050 TX14/2613Z TN04/2605Z
TEMPO 2600/2607 2000 -RA BR
TEMPO 2607/2624 5000 RA
PROB40
TEMPO 2605/2612 3000 TSRA FEW010 SCT027CB BKN040



MET'MAP, la Météo Aéronautique d'un coup d'oeil ! - Copyright ORBIFLY Décembre 2007 - Disclaimer

ORBIFLY MET'MAP TEAM :

Programmation & Développement : Alexandra Zaïnal
Sur une idée originale de : Baudouin d'Aumeries
Assistance à la programmation : Marc-Olivier Méhu
Soutien technique & logistique : Manuel Goepfert

Contact : metmap@orbifly.com




SOURCES & CREDITS :

   NOAA